Amarant — CQSF — position and weather

sailwx.info

Track history (hours):
 
Tides and Currents Weather Stations Pressure Air Temp Water Temp Dewpoint Dewpoint Depression Visibility Wind Speed Wind Dir Waves Ship Positions

Amarant

Last reported at 2015-Aug-01 03:13 UTC. Time now 2015-Aug-01 07:46 UTC.
Position N 58°55' E 017°58'.

Length 120 m; draft 6.3 m.

Type: Tanker. MMSI: 255623000.

Date/timePositionNaut miles runAvg speedWind from/ knotsBaromVisibWave heightAir tempDewpointWater temp
2015-Aug-01 03:13N 58°55' E 017°58'7811.6
2015-Jul-31 20:32N 57°41' E 017°10'1313.6
2015-Jul-31 19:33N 57°29' E 016°60'1413.7
2015-Jul-31 18:33N 57°17' E 016°50'1413.5
2015-Jul-31 17:33N 57°04' E 016°42'5 0.6
2015-Jul-31 09:33N 56°59' E 016°39'1313.4
2015-Jul-31 08:33N 57°12' E 016°48'1313.3
2015-Jul-31 07:33N 57°24' E 016°55'1313.4
2015-Jul-31 06:33N 57°37' E 017°06'4313.5
2015-Jul-31 03:23N 58°16' E 017°36'1613.8
2015-Jul-31 02:14N 58°31' E 017°47'1013.6
2015-Jul-31 01:31N 58°41' E 017°53'  
2015-Jul-27 23:33N 58°29' E 017°49'1211.8
2015-Jul-27 22:33N 58°17' E 017°43'1611.7
2015-Jul-27 21:12N 58°02' E 017°37'1911.7
2015-Jul-27 19:33N 57°43' E 017°29'1212.2
2015-Jul-27 18:32N 57°31' E 017°24'1212.6
2015-Jul-27 17:33N 57°19' E 017°20'1212.4
2015-Jul-27 16:33N 57°06' E 017°15'9711.4
2015-Jul-27 08:06N 55°44' E 015°45'712.2
2015-Jul-27 07:33N 55°41' E 015°35'1212.1
2015-Jul-27 06:33N 55°35' E 015°16'1212.0
2015-Jul-27 05:33N 55°29' E 014°57'1211.7
2015-Jul-27 04:33N 55°23' E 014°40'1211.7
2015-Jul-27 03:33N 55°15' E 014°25'1110.7
2015-Jul-27 02:33N 55°10' E 014°08'1211.6
2015-Jul-27 01:33N 55°10' E 013°48'2711.5
2015-Jul-26 23:13N 55°13' E 013°01'811.9
2015-Jul-26 22:33N 55°16' E 012°48'9 9.3
2015-Jul-26 21:33N 55°23' E 012°40'1110.9
2015-Jul-26 20:33N 55°34' E 012°42'1111.0
2015-Jul-26 19:33N 55°45' E 012°41'1212.1
2015-Jul-26 18:33N 55°57' E 012°38'1211.8
2015-Jul-26 17:33N 56°08' E 012°29'1211.6
2015-Jul-26 16:33N 56°18' E 012°19'1712.0
2015-Jul-26 15:06N 56°35' E 012°11'712.1
2015-Jul-26 14:33N 56°41' E 012°08'1212.1
2015-Jul-26 13:33N 56°53' E 012°02'1212.1
2015-Jul-26 12:33N 57°05' E 011°57'1412.9
2015-Jul-26 11:29N 57°18' E 011°49'1212.4
2015-Jul-26 10:33N 57°29' E 011°41'1010.1
2015-Jul-26 09:33N 57°39' E 011°42'6 6.2
2015-Jul-26 08:33N 57°42' E 011°52'0 0.0
2015-Jul-26 07:33N 57°41' E 011°52'0 0.0
2015-Jul-26 06:34N 57°41' E 011°52'0 0.0
2015-Jul-26 05:34N 57°42' E 011°52'0 0.0
2015-Jul-26 04:33N 57°41' E 011°52'0 0.0
2015-Jul-26 03:34N 57°41' E 011°52'0 0.0
2015-Jul-26 02:33N 57°41' E 011°52'0 0.0
2015-Jul-26 01:33N 57°41' E 011°52'0 0.0
2015-Jul-26 00:33N 57°41' E 011°52'0 0.0
2015-Jul-25 23:34N 57°41' E 011°52'0 0.0
2015-Jul-25 22:34N 57°41' E 011°52'0 0.0
2015-Jul-25 21:34N 57°42' E 011°52'0 0.0
2015-Jul-25 20:34N 57°41' E 011°52'0 0.5
2015-Jul-25 19:34N 57°41' E 011°53'0 0.0
2015-Jul-25 07:14N 57°41' E 011°53'0 0.0
2015-Jul-25 06:34N 57°41' E 011°53'7 7.0
2015-Jul-25 05:33N 57°38' E 011°42'10 9.9
2015-Jul-25 04:33N 57°39' E 011°23'1111.1
2015-Jul-25 03:33N 57°43' E 011°04'1211.7
2015-Jul-25 02:33N 57°47' E 010°43'1413.3
2015-Jul-25 01:29N 57°43' E 010°17'1512.9
2015-Jul-25 00:21N 57°38' E 009°52'1113.1
2015-Jul-24 23:33N 57°32' E 009°35'14212.7
2015-Jul-24 12:26N 55°44' E 006°49'1113.1
2015-Jul-24 11:33N 55°34' E 006°39'1613.1
2015-Jul-24 10:22N 55°21' E 006°25'7712.9
2015-Jul-24 04:24N 54°15' E 005°16'1112.9
2015-Jul-24 03:33N 54°05' E 005°07'1313.0
2015-Jul-24 02:33N 53°53' E 004°59'1513.2
2015-Jul-24 01:25N 53°39' E 004°51'1213.6
2015-Jul-24 00:33N 53°28' E 004°44'1414.5
2015-Jul-23 23:33N 53°14' E 004°35'1414.4
2015-Jul-23 22:33N 53°02' E 004°23'1413.9
2015-Jul-23 21:33N 52°49' E 004°13'1414.0
2015-Jul-23 20:33N 52°39' E 003°57'3213.9
2015-Jul-23 18:16N 52°12' E 003°29'1114.0
2015-Jul-23 17:29N 52°02' E 003°26'1513.4
2015-Jul-23 16:22N 51°47' E 003°17'1011.7
2015-Jul-23 15:32N 51°38' E 003°21'1212.2
2015-Jul-23 14:33N 51°28' E 003°31'9 9.1
2015-Jul-23 13:34N 51°23' E 003°43'1111.2
2015-Jul-23 12:34N 51°26' E 004°01'1111.3
2015-Jul-23 11:34N 51°21' E 004°17'0 0.3
2015-Jul-23 10:33N 51°21' E 004°17'1 1.1
2015-Jul-23 09:34N 51°20' E 004°18'4 4.0
2015-Jul-23 08:34N 51°16' E 004°21'0 0.0
2015-Jul-23 07:33N 51°16' E 004°21'0 0.0
2015-Jul-23 06:33N 51°16' E 004°21'0 0.0
2015-Jul-23 05:30N 51°16' E 004°21'0 0.0
2015-Jul-23 04:33N 51°16' E 004°21'0 0.0
2015-Jul-23 03:33N 51°16' E 004°21'0 0.0
2015-Jul-23 02:33N 51°16' E 004°21'0 0.0
2015-Jul-23 01:33N 51°16' E 004°21'0 0.0
2015-Jul-23 00:33N 51°16' E 004°21'0 0.0
2015-Jul-22 23:33N 51°16' E 004°21'0 0.0
2015-Jul-22 22:33N 51°16' E 004°21'0 0.0
2015-Jul-22 21:33N 51°16' E 004°21'0 0.0
2015-Jul-22 20:34N 51°16' E 004°21'0 0.2
2015-Jul-22 19:33N 51°16' E 004°22'0 0.5
2015-Jul-22 18:32N 51°16' E 004°21'0 0.0
2015-Jul-22 17:26N 51°16' E 004°21'0 0.0
2015-Jul-22 16:32N 51°16' E 004°21'0 0.0
2015-Jul-22 15:32N 51°16' E 004°21'0 0.0
2015-Jul-22 14:32N 51°16' E 004°21'0 0.0
2015-Jul-22 13:32N 51°16' E 004°21'0 0.0
2015-Jul-22 12:32N 51°16' E 004°21'0 0.0
2015-Jul-22 11:32N 51°16' E 004°21'0 0.0
2015-Jul-22 10:32N 51°16' E 004°21'0 0.0
2015-Jul-22 09:33N 51°16' E 004°21'0 0.3
2015-Jul-22 08:34N 51°16' E 004°20'1 1.5
2015-Jul-22 07:33N 51°15' E 004°22'0 0.0
2015-Jul-22 06:31N 51°15' E 004°22'0 0.0
2015-Jul-22 05:34N 51°15' E 004°22'0 0.0
2015-Jul-22 04:31N 51°15' E 004°22'0 0.0
2015-Jul-22 03:33N 51°15' E 004°22'  
Track history (hours):
 
Tides and Currents Weather Stations Pressure Air Temp Water Temp Dewpoint Dewpoint Depression Visibility Wind Speed Wind Dir Waves Ship Positions

Amarant

Last reported at 2015-Aug-01 03:13 UTC. Time now 2015-Aug-01 07:46 UTC.
Position N 58°55' E 017°58'.

Length 120 m; draft 6.3 m.

Type: Tanker. MMSI: 255623000.

Date/timePositionNaut miles runAvg speedWind from/ knotsBaromVisibWave heightAir tempDewpointWater temp
2015-Aug-01 03:13N 58°55' E 017°58'7811.6
2015-Jul-31 20:32N 57°41' E 017°10'1313.6
2015-Jul-31 19:33N 57°29' E 016°60'1413.7
2015-Jul-31 18:33N 57°17' E 016°50'1413.5
2015-Jul-31 17:33N 57°04' E 016°42'5 0.6
2015-Jul-31 09:33N 56°59' E 016°39'1313.4
2015-Jul-31 08:33N 57°12' E 016°48'1313.3
2015-Jul-31 07:33N 57°24' E 016°55'1313.4
2015-Jul-31 06:33N 57°37' E 017°06'4313.5
2015-Jul-31 03:23N 58°16' E 017°36'1613.8
2015-Jul-31 02:14N 58°31' E 017°47'1013.6
2015-Jul-31 01:31N 58°41' E 017°53'  
2015-Jul-27 23:33N 58°29' E 017°49'1211.8
2015-Jul-27 22:33N 58°17' E 017°43'1611.7
2015-Jul-27 21:12N 58°02' E 017°37'1911.7
2015-Jul-27 19:33N 57°43' E 017°29'1212.2
2015-Jul-27 18:32N 57°31' E 017°24'1212.6
2015-Jul-27 17:33N 57°19' E 017°20'1212.4
2015-Jul-27 16:33N 57°06' E 017°15'9711.4
2015-Jul-27 08:06N 55°44' E 015°45'712.2
2015-Jul-27 07:33N 55°41' E 015°35'1212.1
2015-Jul-27 06:33N 55°35' E 015°16'1212.0
2015-Jul-27 05:33N 55°29' E 014°57'1211.7
2015-Jul-27 04:33N 55°23' E 014°40'1211.7
2015-Jul-27 03:33N 55°15' E 014°25'1110.7
2015-Jul-27 02:33N 55°10' E 014°08'1211.6
2015-Jul-27 01:33N 55°10' E 013°48'2711.5
2015-Jul-26 23:13N 55°13' E 013°01'811.9
2015-Jul-26 22:33N 55°16' E 012°48'9 9.3
2015-Jul-26 21:33N 55°23' E 012°40'1110.9
2015-Jul-26 20:33N 55°34' E 012°42'1111.0
2015-Jul-26 19:33N 55°45' E 012°41'1212.1
2015-Jul-26 18:33N 55°57' E 012°38'1211.8
2015-Jul-26 17:33N 56°08' E 012°29'1211.6
2015-Jul-26 16:33N 56°18' E 012°19'1712.0
2015-Jul-26 15:06N 56°35' E 012°11'712.1
2015-Jul-26 14:33N 56°41' E 012°08'1212.1
2015-Jul-26 13:33N 56°53' E 012°02'1212.1
2015-Jul-26 12:33N 57°05' E 011°57'1412.9
2015-Jul-26 11:29N 57°18' E 011°49'1212.4
2015-Jul-26 10:33N 57°29' E 011°41'1010.1
2015-Jul-26 09:33N 57°39' E 011°42'6 6.2
2015-Jul-26 08:33N 57°42' E 011°52'0 0.0
2015-Jul-26 07:33N 57°41' E 011°52'0 0.0
2015-Jul-26 06:34N 57°41' E 011°52'0 0.0
2015-Jul-26 05:34N 57°42' E 011°52'0 0.0
2015-Jul-26 04:33N 57°41' E 011°52'0 0.0
2015-Jul-26 03:34N 57°41' E 011°52'0 0.0
2015-Jul-26 02:33N 57°41' E 011°52'0 0.0
2015-Jul-26 01:33N 57°41' E 011°52'0 0.0
2015-Jul-26 00:33N 57°41' E 011°52'0 0.0
2015-Jul-25 23:34N 57°41' E 011°52'0 0.0
2015-Jul-25 22:34N 57°41' E 011°52'0 0.0
2015-Jul-25 21:34N 57°42' E 011°52'0 0.0
2015-Jul-25 20:34N 57°41' E 011°52'0 0.5
2015-Jul-25 19:34N 57°41' E 011°53'0 0.0
2015-Jul-25 07:14N 57°41' E 011°53'0 0.0
2015-Jul-25 06:34N 57°41' E 011°53'7 7.0
2015-Jul-25 05:33N 57°38' E 011°42'10 9.9
2015-Jul-25 04:33N 57°39' E 011°23'1111.1
2015-Jul-25 03:33N 57°43' E 011°04'1211.7
2015-Jul-25 02:33N 57°47' E 010°43'1413.3
2015-Jul-25 01:29N 57°43' E 010°17'1512.9
2015-Jul-25 00:21N 57°38' E 009°52'1113.1
2015-Jul-24 23:33N 57°32' E 009°35'14212.7
2015-Jul-24 12:26N 55°44' E 006°49'1113.1
2015-Jul-24 11:33N 55°34' E 006°39'1613.1
2015-Jul-24 10:22N 55°21' E 006°25'7712.9
2015-Jul-24 04:24N 54°15' E 005°16'1112.9
2015-Jul-24 03:33N 54°05' E 005°07'1313.0
2015-Jul-24 02:33N 53°53' E 004°59'1513.2
2015-Jul-24 01:25N 53°39' E 004°51'1213.6
2015-Jul-24 00:33N 53°28' E 004°44'1414.5
2015-Jul-23 23:33N 53°14' E 004°35'1414.4
2015-Jul-23 22:33N 53°02' E 004°23'1413.9
2015-Jul-23 21:33N 52°49' E 004°13'1414.0
2015-Jul-23 20:33N 52°39' E 003°57'3213.9
2015-Jul-23 18:16N 52°12' E 003°29'1114.0
2015-Jul-23 17:29N 52°02' E 003°26'1513.4
2015-Jul-23 16:22N 51°47' E 003°17'1011.7
2015-Jul-23 15:32N 51°38' E 003°21'1212.2
2015-Jul-23 14:33N 51°28' E 003°31'9 9.1
2015-Jul-23 13:34N 51°23' E 003°43'1111.2
2015-Jul-23 12:34N 51°26' E 004°01'1111.3
2015-Jul-23 11:34N 51°21' E 004°17'0 0.3
2015-Jul-23 10:33N 51°21' E 004°17'1 1.1
2015-Jul-23 09:34N 51°20' E 004°18'4 4.0
2015-Jul-23 08:34N 51°16' E 004°21'0 0.0
2015-Jul-23 07:33N 51°16' E 004°21'0 0.0
2015-Jul-23 06:33N 51°16' E 004°21'0 0.0
2015-Jul-23 05:30N 51°16' E 004°21'0 0.0
2015-Jul-23 04:33N 51°16' E 004°21'0 0.0
2015-Jul-23 03:33N 51°16' E 004°21'0 0.0
2015-Jul-23 02:33N 51°16' E 004°21'0 0.0
2015-Jul-23 01:33N 51°16' E 004°21'0 0.0
2015-Jul-23 00:33N 51°16' E 004°21'0 0.0
2015-Jul-22 23:33N 51°16' E 004°21'0 0.0
2015-Jul-22 22:33N 51°16' E 004°21'0 0.0
2015-Jul-22 21:33N 51°16' E 004°21'0 0.0
2015-Jul-22 20:34N 51°16' E 004°21'0 0.2
2015-Jul-22 19:33N 51°16' E 004°22'0 0.5
2015-Jul-22 18:32N 51°16' E 004°21'0 0.0
2015-Jul-22 17:26N 51°16' E 004°21'0 0.0
2015-Jul-22 16:32N 51°16' E 004°21'0 0.0
2015-Jul-22 15:32N 51°16' E 004°21'0 0.0
2015-Jul-22 14:32N 51°16' E 004°21'0 0.0
2015-Jul-22 13:32N 51°16' E 004°21'0 0.0
2015-Jul-22 12:32N 51°16' E 004°21'0 0.0
2015-Jul-22 11:32N 51°16' E 004°21'0 0.0
2015-Jul-22 10:32N 51°16' E 004°21'0 0.0
2015-Jul-22 09:33N 51°16' E 004°21'0 0.3
2015-Jul-22 08:34N 51°16' E 004°20'1 1.5
2015-Jul-22 07:33N 51°15' E 004°22'0 0.0
2015-Jul-22 06:31N 51°15' E 004°22'0 0.0
2015-Jul-22 05:34N 51°15' E 004°22'0 0.0
2015-Jul-22 04:31N 51°15' E 004°22'0 0.0
2015-Jul-22 03:33N 51°15' E 004°22'  

Dump ship's entire track history